Time;durP1;ratioP1;P1;durP2;ratioP2;P2;SDS_P1;SDS_P2;PMS_P1;PMS_P2;Temp;Humidity;BMP_temperature;BMP_pressure;BME280_temperature;BME280_humidity;BME280_pressure;Samples;Min_cycle;Max_cycle;Signal;HPM_P1;HPM_P2
2022/02/20 17:36:39;;;;;;;;;4.00;2.00;;;;;17.46;59.69;100908.06;5094690;27;45880;-73
2022/02/20 17:39:04;;;;;;;;;5.00;3.00;;;;;17.65;59.18;100894.00;5105072;27;45926;-74
2022/02/20 17:41:30;;;;;;;;;3.25;2.00;;;;;17.88;59.20;100900.16;5107403;27;45500;-75
2022/02/20 17:43:55;;;;;;;;;5.75;4.00;;;;;18.15;58.85;100898.88;5107780;27;45516;-74
2022/02/20 17:46:20;;;;;;;;;3.25;2.50;;;;;18.46;58.52;100870.38;5105016;27;45771;-74
2022/02/20 17:48:46;;;;;;;;;4.25;3.75;;;;;18.75;57.90;100869.69;5102060;27;45472;-74
2022/02/20 17:51:11;;;;;;;;;4.33;2.00;;;;;19.06;57.67;100861.66;5105805;27;45830;-74
2022/02/20 17:53:37;;;;;;;;;4.33;3.33;;;;;19.35;57.26;100860.91;5106618;27;45363;-74
2022/02/20 17:56:04;;;;;;;;;2.33;2.00;;;;;19.65;56.66;100880.66;5107514;27;45981;-74
2022/02/20 17:58:30;;;;;;;;;4.33;2.00;;;;;19.93;56.21;100893.44;5104076;27;45810;-76
2022/02/20 18:00:56;;;;;;;;;3.00;3.00;;;;;20.17;55.03;100903.84;5106883;27;45897;-75
2022/02/20 18:03:22;;;;;;;;;3.67;2.67;;;;;20.40;54.46;100909.78;5101695;27;45916;-75
2022/02/20 18:05:47;;;;;;;;;4.00;2.33;;;;;20.64;54.62;100902.25;5109210;27;45986;-71
2022/02/20 18:08:13;;;;;;;;;4.00;3.00;;;;;20.85;53.51;100901.19;5106372;27;45526;-72
2022/02/20 18:10:39;;;;;;;;;2.33;2.33;;;;;21.02;53.03;100897.75;5107102;27;45501;-72
2022/02/20 18:13:07;;;;;;;;;3.67;3.67;;;;;21.18;52.80;100902.50;5107747;27;45464;-73
2022/02/20 18:15:32;;;;;;;;;5.00;4.00;;;;;21.33;52.30;100902.00;5107273;27;46140;-73
2022/02/20 18:17:58;;;;;;;;;3.00;3.00;;;;;21.45;52.30;100897.25;5106396;27;45788;-72
2022/02/20 18:20:24;;;;;;;;;4.67;3.33;;;;;21.54;52.17;100882.84;5105560;27;45476;-72
2022/02/20 18:22:52;;;;;;;;;3.33;3.33;;;;;21.63;51.48;100878.41;5108638;27;45613;-72
2022/02/20 18:25:18;;;;;;;;;4.67;2.00;;;;;21.74;51.66;100879.22;5107347;27;45526;-72
2022/02/20 18:27:43;;;;;;;;;6.67;2.67;;;;;21.83;50.98;100867.47;5103600;27;46613;-73
2022/02/20 18:30:15;;;;;;;;;3.33;3.33;;;;;21.89;51.11;100880.38;5104697;27;45566;-72
2022/02/20 18:32:41;;;;;;;;;2.00;2.00;;;;;21.95;50.74;100860.81;5099708;27;45829;-72
2022/02/20 18:35:07;;;;;;;;;3.00;3.00;;;;;22.04;50.56;100871.72;5106883;27;46078;-72
2022/02/20 18:37:33;;;;;;;;;4.33;3.00;;;;;22.08;50.51;100857.72;5105754;27;45884;-72
2022/02/20 18:39:59;;;;;;;;;2.00;2.00;;;;;22.14;50.16;100858.13;5104777;27;45421;-73
2022/02/20 18:42:24;;;;;;;;;3.00;3.00;;;;;22.20;49.73;100852.09;5106959;27;45376;-73
2022/02/20 18:44:51;;;;;;;;;3.00;3.00;;;;;22.24;49.60;100829.97;5107582;27;46110;-73
2022/02/20 18:47:17;;;;;;;;;2.67;2.67;;;;;22.27;49.75;100831.50;5096709;27;45407;-73
2022/02/20 18:49:42;;;;;;;;;2.67;2.00;;;;;22.31;49.78;100816.66;5091890;27;45604;-73
2022/02/20 18:52:08;;;;;;;;;4.00;2.33;;;;;22.35;49.20;100820.75;5093367;27;45422;-72
2022/02/20 18:54:33;;;;;;;;;3.00;2.00;;;;;22.39;49.35;100799.66;5092882;27;45636;-73
2022/02/20 18:56:59;;;;;;;;;5.33;2.00;;;;;22.41;48.81;100783.25;5093457;27;45445;-72
2022/02/20 18:59:24;;;;;;;;;6.00;2.00;;;;;22.45;48.80;100774.69;5086489;27;47207;-72
2022/02/20 19:01:49;;;;;;;;;2.67;2.67;;;;;22.47;48.50;100783.47;5091953;27;46376;-72
2022/02/20 19:04:16;;;;;;;;;2.33;2.33;;;;;22.49;48.64;100789.56;5089986;27;46440;-73
2022/02/20 19:06:42;;;;;;;;;3.00;3.00;;;;;22.55;48.60;100792.66;5092234;27;45509;-72
2022/02/20 19:09:07;;;;;;;;;6.00;3.00;;;;;22.60;48.34;100803.88;5090917;27;45588;-71
2022/02/20 19:11:34;;;;;;;;;3.00;1.67;;;;;22.62;48.58;100789.19;5090455;27;45482;-72
2022/02/20 19:14:00;;;;;;;;;4.00;2.00;;;;;22.65;48.38;100801.53;5091218;27;46312;-72
2022/02/20 19:16:25;;;;;;;;;2.33;1.67;;;;;22.71;48.37;100805.44;5092961;27;45614;-74
2022/02/20 19:18:50;;;;;;;;;3.00;2.00;;;;;22.72;48.29;100801.72;5092638;27;45437;-74
2022/02/20 19:21:17;;;;;;;;;2.67;2.67;;;;;22.71;47.73;100797.31;5091420;27;45507;-72
2022/02/20 19:23:42;;;;;;;;;1.67;1.67;;;;;22.73;47.77;100793.44;5091838;27;45589;-72
2022/02/20 19:26:08;;;;;;;;;2.00;2.00;;;;;22.72;47.67;100780.09;5091920;27;45531;-72
2022/02/20 19:28:34;;;;;;;;;3.33;3.33;;;;;22.73;47.83;100779.06;5093569;27;45444;-72
2022/02/20 19:31:01;;;;;;;;;4.67;2.00;;;;;22.73;47.54;100784.47;5090418;27;45876;-72
2022/02/20 19:33:27;;;;;;;;;2.33;2.00;;;;;22.73;47.40;100779.91;5089383;27;45598;-72
2022/02/20 19:35:52;;;;;;;;;3.00;3.00;;;;;22.75;48.05;100758.09;5092334;27;45707;-72
2022/02/20 19:38:18;;;;;;;;;3.00;1.67;;;;;22.75;47.52;100739.16;5089630;27;45485;-73
2022/02/20 19:40:44;;;;;;;;;2.33;2.33;;;;;22.75;47.57;100722.94;5092902;27;46429;-72
2022/02/20 19:43:10;;;;;;;;;3.67;2.00;;;;;22.75;47.65;100720.22;5092401;27;46242;-72
2022/02/20 19:45:36;;;;;;;;;2.00;2.00;;;;;22.74;47.82;100724.81;5093755;27;45944;-73
2022/02/20 19:48:01;;;;;;;;;3.67;2.00;;;;;22.78;47.02;100738.84;5090662;27;45850;-72
2022/02/20 19:50:27;;;;;;;;;6.33;2.00;;;;;22.79;47.46;100736.97;5092052;27;48937;-72
2022/02/20 19:52:53;;;;;;;;;2.00;2.00;;;;;22.81;47.34;100729.56;5091139;27;45888;-72
2022/02/20 19:55:22;;;;;;;;;2.67;2.67;;;;;22.82;47.19;100701.47;5093150;27;45578;-72
